Time;durP1;ratioP1;P1;durP2;ratioP2;P2;SDS_P1;SDS_P2;PMS_P1;PMS_P2;Temp;Humidity;BMP_temperature;BMP_pressure;BME280_temperature;BME280_humidity;BME280_pressure;Samples;Min_cycle;Max_cycle;Signal;HPM_P1;HPM_P2
2023/06/30 00:00:25;;;;;;;9.47;4.80;;;13.50;99.90;;;;;;4404307;28;658461;-72
2023/06/30 00:03:15;;;;;;;7.67;5.40;;;13.50;99.90;;;;;;4410169;28;657387;-73
2023/06/30 00:06:03;;;;;;;7.53;5.10;;;13.50;99.90;;;;;;4387459;28;656998;-73
2023/06/30 00:08:51;;;;;;;8.90;5.23;;;13.50;99.90;;;;;;4387383;28;657018;-73
2023/06/30 00:11:39;;;;;;;6.43;5.27;;;13.40;99.90;;;;;;4406914;28;657176;-73
2023/06/30 00:14:26;;;;;;;8.57;5.50;;;13.40;99.90;;;;;;4376614;28;656836;-73
2023/06/30 00:17:13;;;;;;;10.93;5.70;;;13.40;99.90;;;;;;4408739;28;656576;-74
2023/06/30 00:20:05;;;;;;;7.57;5.73;;;13.40;99.90;;;;;;4385901;28;658877;-72
2023/06/30 00:22:54;;;;;;;7.20;5.90;;;13.40;99.90;;;;;;4386340;28;657230;-74
2023/06/30 00:25:41;;;;;;;10.47;6.07;;;13.30;99.90;;;;;;4385109;28;656348;-73
2023/06/30 00:28:28;;;;;;;9.50;6.00;;;13.30;99.90;;;;;;4401708;28;658948;-73
2023/06/30 00:31:15;;;;;;;10.95;6.38;;;13.20;99.90;;;;;;4379539;28;657330;-72
2023/06/30 00:34:02;;;;;;;8.40;5.73;;;13.30;99.90;;;;;;4405203;28;658283;-74
2023/06/30 00:36:50;;;;;;;12.40;6.63;;;13.30;99.90;;;;;;4401761;28;656687;-71
2023/06/30 00:39:39;;;;;;;10.27;6.50;;;13.20;99.90;;;;;;4407521;28;658482;-72
2023/06/30 00:42:26;;;;;;;12.07;6.47;;;13.20;99.90;;;;;;4386201;28;657544;-73
2023/06/30 00:45:13;;;;;;;12.13;7.07;;;13.20;99.90;;;;;;4409919;28;657954;-72
2023/06/30 00:48:00;;;;;;;9.47;6.70;;;13.20;99.90;;;;;;4377563;28;657771;-71
2023/06/30 00:50:48;;;;;;;12.30;6.90;;;13.20;99.90;;;;;;4404797;28;658205;-73
2023/06/30 00:53:35;;;;;;;15.73;6.73;;;13.10;99.90;;;;;;4401109;28;658276;-72
2023/06/30 00:56:24;;;;;;;20.93;7.40;;;13.10;99.90;;;;;;4404637;28;658161;-73
2023/06/30 00:59:11;;;;;;;10.30;6.67;;;13.10;99.90;;;;;;4387237;28;657607;-73
2023/06/30 01:02:01;;;;;;;13.37;7.10;;;13.10;99.90;;;;;;4410176;28;658429;-73
2023/06/30 01:04:50;;;;;;;9.63;7.00;;;13.10;99.90;;;;;;4375894;28;658994;-73
2023/06/30 01:07:38;;;;;;;11.83;7.10;;;13.00;99.90;;;;;;4385355;28;657442;-72
2023/06/30 01:10:26;;;;;;;10.93;7.50;;;13.00;99.90;;;;;;4385839;28;657435;-74
2023/06/30 01:13:14;;;;;;;15.93;7.77;;;13.00;99.90;;;;;;4408863;28;657679;-73
2023/06/30 01:16:04;;;;;;;17.77;7.60;;;12.90;99.90;;;;;;4387645;28;657884;-73
2023/06/30 01:18:53;;;;;;;13.50;7.67;;;13.00;99.90;;;;;;4388824;28;658523;-72
2023/06/30 01:21:40;;;;;;;11.33;7.70;;;12.90;99.90;;;;;;4387174;28;657831;-71
2023/06/30 01:24:27;;;;;;;12.47;7.50;;;12.90;99.90;;;;;;4410235;28;658011;-73
2023/06/30 01:27:16;;;;;;;10.27;6.67;;;12.90;99.90;;;;;;4405953;28;657312;-71
2023/06/30 01:30:05;;;;;;;11.03;6.97;;;12.80;99.90;;;;;;4409910;28;658459;-74
2023/06/30 01:32:54;;;;;;;10.60;6.60;;;12.80;99.90;;;;;;4388881;28;659441;-73
2023/06/30 01:35:41;;;;;;;11.37;6.80;;;12.80;99.90;;;;;;4379684;28;657437;-72
2023/06/30 01:38:29;;;;;;;20.53;7.27;;;12.80;99.90;;;;;;4406132;28;658681;-73
2023/06/30 01:41:16;;;;;;;10.57;6.83;;;12.80;99.90;;;;;;4387994;28;657879;-72
2023/06/30 01:44:03;;;;;;;9.20;7.00;;;12.80;99.90;;;;;;4410101;28;657748;-73
2023/06/30 01:46:52;;;;;;;11.07;6.57;;;12.80;99.90;;;;;;4384186;28;656389;-71
2023/06/30 01:49:39;;;;;;;11.17;6.60;;;12.70;99.90;;;;;;4404628;28;658050;-73
2023/06/30 01:52:26;;;;;;;11.13;7.10;;;12.70;99.90;;;;;;4384611;28;657656;-73
2023/06/30 01:55:13;;;;;;;13.77;7.40;;;12.70;99.90;;;;;;4402415;28;658790;-73
2023/06/30 01:58:00;;;;;;;12.00;6.70;;;12.70;99.90;;;;;;4387618;28;658287;-72
2023/06/30 02:00:48;;;;;;;11.50;7.37;;;12.70;99.90;;;;;;4407984;28;658775;-73
2023/06/30 02:03:37;;;;;;;11.10;7.23;;;12.70;99.90;;;;;;4393473;28;657620;-71
2023/06/30 02:06:24;;;;;;;11.60;7.70;;;12.60;99.90;;;;;;4403583;28;658019;-73
2023/06/30 02:09:12;;;;;;;15.20;8.50;;;12.60;99.90;;;;;;4379561;28;657673;-72
2023/06/30 02:11:59;;;;;;;17.33;8.80;;;12.60;99.90;;;;;;4405589;28;657748;-73
2023/06/30 02:14:46;;;;;;;16.70;9.60;;;12.60;99.90;;;;;;4385800;28;657366;-73
2023/06/30 02:17:35;;;;;;;17.93;8.57;;;12.60;99.90;;;;;;4410104;28;658307;-72
2023/06/30 02:20:24;;;;;;;15.60;8.53;;;12.60;99.90;;;;;;4379033;28;658566;-73
2023/06/30 02:23:11;;;;;;;14.83;8.70;;;12.60;99.90;;;;;;4382824;28;658367;-72
2023/06/30 02:25:59;;;;;;;17.27;8.83;;;12.50;99.90;;;;;;4404202;28;659351;-73
2023/06/30 02:28:46;;;;;;;12.37;8.70;;;12.50;99.90;;;;;;4384637;28;657485;-73
2023/06/30 02:31:33;;;;;;;15.17;8.17;;;12.50;99.90;;;;;;4406614;28;658202;-73
2023/06/30 02:34:20;;;;;;;14.13;8.90;;;12.50;99.90;;;;;;4388330;28;657696;-71
2023/06/30 02:37:09;;;;;;;13.63;8.57;;;12.60;99.90;;;;;;4411155;28;657895;-72
2023/06/30 02:39:56;;;;;;;15.83;8.87;;;12.50;99.90;;;;;;4384344;28;657965;-73
2023/06/30 02:42:44;;;;;;;12.77;8.23;;;12.60;99.90;;;;;;4402496;28;658204;-73
2023/06/30 02:45:31;;;;;;;12.73;8.07;;;12.60;99.90;;;;;;4384575;28;657630;-73
2023/06/30 02:48:18;;;;;;;10.40;7.63;;;12.60;99.90;;;;;;4409071;28;658524;-73
2023/06/30 02:51:05;;;;;;;15.23;8.13;;;12.70;99.90;;;;;;4387004;28;657493;-71
2023/06/30 02:53:54;;;;;;;11.80;7.90;;;12.70;99.90;;;;;;4410121;28;657721;-73
2023/06/30 02:56:41;;;;;;;9.73;8.00;;;12.70;99.90;;;;;;4383308;28;657744;-71
2023/06/30 02:59:28;;;;;;;13.13;8.10;;;12.80;99.90;;;;;;4406410;28;657163;-72
2023/06/30 03:02:15;;;;;;;17.57;8.17;;;12.80;99.90;;;;;;4386678;28;657576;-73
2023/06/30 03:05:04;;;;;;;13.47;8.47;;;12.90;99.90;;;;;;4406321;28;657943;-72
2023/06/30 03:07:52;;;;;;;10.50;7.97;;;13.00;99.90;;;;;;4386554;28;657683;-72
2023/06/30 03:10:40;;;;;;;13.10;7.70;;;13.00;99.90;;;;;;4408241;28;657553;-72
2023/06/30 03:13:27;;;;;;;15.23;8.17;;;13.10;99.90;;;;;;4376866;28;658235;-72
2023/06/30 03:16:15;;;;;;;15.07;8.47;;;13.20;99.90;;;;;;4405707;28;657572;-71
2023/06/30 03:19:02;;;;;;;12.93;8.20;;;13.30;99.90;;;;;;4408570;28;658903;-72
2023/06/30 03:21:50;;;;;;;10.17;7.93;;;13.30;99.90;;;;;;4409129;28;657405;-72
2023/06/30 03:24:37;;;;;;;13.43;8.33;;;13.40;99.90;;;;;;4385709;28;658786;-73
2023/06/30 03:27:26;;;;;;;12.07;8.03;;;13.40;99.90;;;;;;4404622;28;657823;-73
2023/06/30 03:30:13;;;;;;;11.83;7.83;;;13.40;99.90;;;;;;4385829;28;658416;-73
2023/06/30 03:33:00;;;;;;;14.45;9.15;;;13.50;99.90;;;;;;4382581;28;657598;-71
2023/06/30 03:35:49;;;;;;;14.13;9.27;;;13.60;99.90;;;;;;4409413;28;657753;-73
2023/06/30 03:38:36;;;;;;;12.03;8.77;;;13.60;99.90;;;;;;4381304;28;658185;-74
2023/06/30 03:41:23;;;;;;;12.97;9.00;;;13.70;99.90;;;;;;4403347;28;658048;-74
2023/06/30 03:44:13;;;;;;;12.37;9.37;;;13.70;99.90;;;;;;4386824;28;657701;-74
2023/06/30 03:47:01;;;;;;;12.77;8.83;;;13.70;99.90;;;;;;4383094;28;657492;-72
2023/06/30 03:49:48;;;;;;;14.53;9.07;;;13.80;99.90;;;;;;4405646;28;658796;-72
2023/06/30 03:52:35;;;;;;;14.53;9.60;;;13.90;99.90;;;;;;4390860;28;657860;-71
2023/06/30 03:55:23;;;;;;;12.93;8.83;;;14.00;99.90;;;;;;4404269;28;658384;-73
2023/06/30 03:58:10;;;;;;;14.63;8.97;;;14.10;99.90;;;;;;4397892;28;658311;-71
2023/06/30 04:00:59;;;;;;;11.10;8.40;;;14.20;99.90;;;;;;4409129;28;657964;-74
2023/06/30 04:03:46;;;;;;;14.47;8.83;;;14.30;99.90;;;;;;4374453;28;658317;-72
2023/06/30 04:06:33;;;;;;;15.90;9.30;;;14.40;99.90;;;;;;4400587;28;657237;-73
2023/06/30 04:09:21;;;;;;;17.50;9.90;;;14.60;99.90;;;;;;4382385;28;657558;-72
2023/06/30 04:12:09;;;;;;;15.90;9.07;;;14.80;99.90;;;;;;4409351;28;657825;-73
2023/06/30 04:14:56;;;;;;;12.13;9.00;;;14.90;99.90;;;;;;4384621;28;657551;-73
2023/06/30 04:17:44;;;;;;;12.27;9.13;;;15.10;99.90;;;;;;4406389;28;659027;-73
2023/06/30 04:20:32;;;;;;;15.80;8.73;;;15.20;99.90;;;;;;4375271;28;657448;-73
2023/06/30 04:23:19;;;;;;;13.63;9.03;;;15.30;99.90;;;;;;4408092;28;657042;-73
2023/06/30 04:26:06;;;;;;;14.33;9.27;;;15.50;99.90;;;;;;4384184;28;658035;-73
2023/06/30 04:28:53;;;;;;;12.30;9.27;;;15.60;99.90;;;;;;4412874;28;657035;-73
2023/06/30 04:31:40;;;;;;;12.90;8.93;;;15.80;99.90;;;;;;4388285;28;657834;-71
2023/06/30 04:34:29;;;;;;;13.10;9.43;;;15.90;99.90;;;;;;4414221;28;658528;-73
2023/06/30 04:37:16;;;;;;;13.77;10.37;;;16.00;99.90;;;;;;4382318;28;658246;-73
2023/06/30 04:40:04;;;;;;;13.57;9.20;;;16.20;99.90;;;;;;4406839;28;660259;-73
2023/06/30 04:42:51;;;;;;;16.37;10.30;;;16.20;99.90;;;;;;4388854;28;657716;-73
2023/06/30 04:45:38;;;;;;;13.57;9.20;;;16.30;99.90;;;;;;4406315;28;659625;-73
2023/06/30 04:48:26;;;;;;;14.50;9.47;;;16.40;99.90;;;;;;4385754;28;658195;-73
2023/06/30 04:51:15;;;;;;;12.50;9.73;;;16.50;99.90;;;;;;4412761;28;659130;-73
2023/06/30 04:54:02;;;;;;;12.70;9.10;;;16.50;99.90;;;;;;4378574;28;659521;-73
2023/06/30 04:56:49;;;;;;;13.03;8.53;;;16.60;99.90;;;;;;4405011;28;658059;-73
2023/06/30 04:59:36;;;;;;;12.57;8.60;;;16.80;99.90;;;;;;4383917;28;657565;-73
2023/06/30 05:02:24;;;;;;;13.17;9.13;;;17.00;99.90;;;;;;4407215;28;658040;-72
2023/06/30 05:05:12;;;;;;;12.07;9.00;;;17.20;99.90;;;;;;4387509;28;657655;-73
2023/06/30 05:08:01;;;;;;;8.30;7.30;;;17.40;99.90;;;;;;4397151;28;658042;-72
2023/06/30 05:10:48;;;;;;;10.90;7.67;;;17.50;99.90;;;;;;4384755;28;657033;-73
2023/06/30 05:13:35;;;;;;;10.30;7.17;;;17.70;99.90;;;;;;4393152;28;658643;-73
2023/06/30 05:16:22;;;;;;;10.97;6.70;;;17.70;99.90;;;;;;4406916;28;658517;-73
2023/06/30 05:19:09;;;;;;;9.23;6.60;;;17.90;99.90;;;;;;4411639;28;657479;-73
2023/06/30 05:21:57;;;;;;;9.37;6.57;;;18.00;99.90;;;;;;4389239;28;656936;-73
2023/06/30 05:24:45;;;;;;;8.90;5.90;;;18.00;99.90;;;;;;4409419;28;656321;-73
2023/06/30 05:27:32;;;;;;;8.50;5.93;;;18.10;99.90;;;;;;4375742;28;658154;-73
2023/06/30 05:30:20;;;;;;;9.97;6.43;;;18.10;99.90;;;;;;4406599;28;656335;-72
2023/06/30 05:33:07;;;;;;;7.80;6.13;;;18.20;99.90;;;;;;4406678;28;657422;-74
2023/06/30 05:35:55;;;;;;;11.13;6.27;;;18.30;99.90;;;;;;4402347;28;656907;-72
2023/06/30 05:38:42;;;;;;;7.03;5.53;;;18.50;99.90;;;;;;4408019;28;658035;-73
2023/06/30 05:41:31;;;;;;;9.37;5.90;;;18.60;99.90;;;;;;4400853;28;656320;-74
2023/06/30 05:44:18;;;;;;;6.00;4.97;;;18.80;99.90;;;;;;4383400;28;656926;-73
2023/06/30 05:47:06;;;;;;;16.57;5.43;;;18.90;99.90;;;;;;4390125;28;656976;-72
2023/06/30 05:49:53;;;;;;;10.27;5.43;;;19.00;99.90;;;;;;4410909;28;658859;-73
2023/06/30 05:52:40;;;;;;;13.10;6.00;;;19.20;99.90;;;;;;4389036;28;658050;-73
2023/06/30 05:55:27;;;;;;;6.13;5.10;;;19.40;99.90;;;;;;4408176;28;658011;-73
2023/06/30 05:58:16;;;;;;;8.80;4.43;;;19.60;99.90;;;;;;4407627;28;656633;-73
2023/06/30 06:01:03;;;;;;;6.97;4.57;;;19.60;99.90;;;;;;4384593;28;657480;-73
2023/06/30 06:03:50;;;;;;;7.07;4.63;;;19.70;99.90;;;;;;4388057;28;656758;-73
2023/06/30 06:06:38;;;;;;;7.57;4.57;;;19.80;99.90;;;;;;4400980;28;657568;-72
2023/06/30 06:09:25;;;;;;;8.57;5.13;;;19.90;99.90;;;;;;4404284;28;656558;-73
2023/06/30 06:12:12;;;;;;;6.77;4.33;;;20.00;99.90;;;;;;4404931;28;656697;-73
2023/06/30 06:15:01;;;;;;;9.73;4.80;;;20.10;99.90;;;;;;4403760;28;656540;-73
2023/06/30 06:17:48;;;;;;;7.17;4.30;;;20.20;99.90;;;;;;4375801;28;656947;-74
2023/06/30 06:20:35;;;;;;;9.73;4.47;;;20.40;99.90;;;;;;4391613;28;657164;-74
2023/06/30 06:23:22;;;;;;;7.17;4.50;;;20.50;99.90;;;;;;4410704;28;657860;-73
2023/06/30 06:26:10;;;;;;;7.87;4.60;;;20.50;99.90;;;;;;4401232;28;656380;-73
2023/06/30 06:28:57;;;;;;;9.27;4.53;;;20.70;99.90;;;;;;4407152;28;656911;-77
2023/06/30 06:31:48;;;;;;;8.73;4.47;;;20.90;99.90;;;;;;4402439;28;656464;-73
2023/06/30 06:34:35;;;;;;;10.50;4.20;;;21.00;99.90;;;;;;4387649;28;656279;-75
2023/06/30 06:37:23;;;;;;;4.67;3.93;;;21.10;99.90;;;;;;4407054;28;659259;-75
2023/06/30 06:40:11;;;;;;;7.47;4.40;;;21.10;99.90;;;;;;4399024;28;656634;-75
2023/06/30 06:42:58;;;;;;;5.00;3.40;;;21.20;99.90;;;;;;4407231;28;656932;-75
2023/06/30 06:45:46;;;;;;;4.83;3.60;;;21.20;99.90;;;;;;4387733;28;657092;-73
2023/06/30 06:48:35;;;;;;;3.80;3.07;;;21.20;99.90;;;;;;4400416;28;656858;-77
2023/06/30 06:51:22;;;;;;;4.47;3.30;;;21.30;99.90;;;;;;4391352;28;658004;-75
2023/06/30 06:54:09;;;;;;;4.20;3.53;;;21.50;99.90;;;;;;4406262;28;656865;-76
2023/06/30 06:56:57;;;;;;;6.23;3.30;;;21.60;99.90;;;;;;4386043;28;657239;-75
2023/06/30 06:59:45;;;;;;;3.80;2.77;;;21.80;99.90;;;;;;4397250;28;656361;-73
2023/06/30 07:02:32;;;;;;;5.33;3.30;;;21.80;99.90;;;;;;4404581;28;656792;-73
2023/06/30 07:05:22;;;;;;;5.43;2.93;;;21.70;99.90;;;;;;4407596;28;656677;-73
2023/06/30 07:08:09;;;;;;;4.33;3.17;;;21.70;99.90;;;;;;4403092;28;657216;-73
2023/06/30 07:10:56;;;;;;;4.07;3.33;;;22.00;99.90;;;;;;4389068;28;657101;-73
2023/06/30 07:13:43;;;;;;;8.80;3.50;;;21.90;99.90;;;;;;4405604;28;657464;-73
2023/06/30 07:16:30;;;;;;;7.13;2.90;;;22.10;99.90;;;;;;4386971;28;656623;-73
2023/06/30 07:19:17;;;;;;;5.47;3.03;;;22.20;99.90;;;;;;4409383;28;658063;-73
2023/06/30 07:22:07;;;;;;;8.20;3.07;;;22.30;99.90;;;;;;4393112;28;656059;-73
2023/06/30 07:24:54;;;;;;;3.47;2.90;;;22.00;99.90;;;;;;4408146;28;657211;-76
2023/06/30 07:27:41;;;;;;;10.53;3.20;;;22.30;99.90;;;;;;4382885;28;656912;-77
2023/06/30 07:30:28;;;;;;;5.87;2.70;;;22.50;99.90;;;;;;4402424;28;658457;-76
2023/06/30 07:33:15;;;;;;;6.23;3.03;;;22.60;99.90;;;;;;4387144;28;656891;-74
2023/06/30 07:36:03;;;;;;;7.43;3.33;;;22.60;99.90;;;;;;4407694;28;656222;-74
2023/06/30 07:38:52;;;;;;;6.60;3.90;;;22.40;99.90;;;;;;4389551;28;656448;-72
2023/06/30 07:41:39;;;;;;;4.87;3.30;;;22.40;99.90;;;;;;4409596;28;656656;-76
2023/06/30 07:44:26;;;;;;;7.30;3.20;;;22.70;99.90;;;;;;4389820;28;657117;-78
2023/06/30 07:47:13;;;;;;;4.30;3.17;;;22.80;99.90;;;;;;4403229;28;657506;-75
2023/06/30 07:50:01;;;;;;;8.73;3.33;;;22.80;99.90;;;;;;4388797;28;656090;-74
2023/06/30 07:52:49;;;;;;;5.40;3.47;;;22.80;99.90;;;;;;4394727;28;657556;-76
2023/06/30 07:55:38;;;;;;;6.43;3.43;;;22.80;99.90;;;;;;4387929;28;656343;-77
2023/06/30 07:58:25;;;;;;;5.90;3.27;;;23.10;99.90;;;;;;4392207;28;656631;-74
2023/06/30 08:01:12;;;;;;;10.47;3.60;;;23.40;99.90;;;;;;4414474;28;656186;-75
2023/06/30 08:04:00;;;;;;;6.57;3.83;;;23.60;99.90;;;;;;4408526;28;657895;-74
2023/06/30 08:06:47;;;;;;;9.88;3.78;;;23.60;99.90;;;;;;4411252;28;657161;-74
2023/06/30 08:09:35;;;;;;;4.97;3.60;;;23.40;99.90;;;;;;4403474;28;656568;-75
2023/06/30 08:12:23;;;;;;;4.88;3.60;;;23.50;99.90;;;;;;4389089;28;656716;-75
2023/06/30 08:15:11;;;;;;;5.67;3.30;;;23.70;99.90;;;;;;4390617;28;656591;-73
2023/06/30 08:17:58;;;;;;;6.88;3.50;;;23.90;99.90;;;;;;4414687;28;657924;-75
2023/06/30 08:20:46;;;;;;;7.28;3.33;;;23.60;99.90;;;;;;4395669;28;657110;-71
2023/06/30 08:23:33;;;;;;;5.18;3.25;;;23.80;99.90;;;;;;4413695;28;658083;-73
2023/06/30 08:26:20;;;;;;;6.63;2.92;;;23.60;99.90;;;;;;4386364;28;656337;-73
2023/06/30 08:29:09;;;;;;;4.13;2.90;;;24.20;98.50;;;;;;4411177;28;656074;-77
2023/06/30 08:31:56;;;;;;;9.98;3.08;;;24.40;97.00;;;;;;4390359;28;658490;-78
2023/06/30 08:34:43;;;;;;;5.18;2.60;;;24.30;91.50;;;;;;4405607;28;656887;-77
2023/06/30 08:37:31;;;;;;;9.05;3.47;;;24.60;92.20;;;;;;4386010;28;656967;-77
2023/06/30 08:40:20;;;;;;;3.88;2.75;;;24.40;93.10;;;;;;4403617;28;657331;-76
2023/06/30 08:43:11;;;;;;;12.82;2.83;;;24.80;93.70;;;;;;4388535;28;657334;-73
2023/06/30 08:46:01;;;;;;;3.20;2.38;;;25.00;90.00;;;;;;4392538;28;658286;-78
2023/06/30 08:48:48;;;;;;;4.53;2.40;;;24.90;86.40;;;;;;4377907;28;657859;-77
2023/06/30 08:51:35;;;;;;;4.67;3.30;;;24.90;82.70;;;;;;4393540;28;656758;-73
2023/06/30 08:54:23;;;;;;;5.80;2.67;;;24.90;78.30;;;;;;4403444;28;657231;-78
2023/06/30 08:57:15;;;;;;;3.40;2.28;;;24.90;77.90;;;;;;4389893;28;656435;-72
2023/06/30 09:00:02;;;;;;;3.80;2.05;;;25.10;79.60;;;;;;4388854;28;656822;-77
2023/06/30 09:02:50;;;;;;;3.25;2.20;;;25.30;77.80;;;;;;4403307;28;656468;-76
2023/06/30 09:05:38;;;;;;;3.25;2.13;;;25.70;73.50;;;;;;4378758;28;657247;-77
2023/06/30 09:08:28;;;;;;;6.85;2.20;;;25.70;73.20;;;;;;4397873;28;656653;-74
2023/06/30 09:11:16;;;;;;;4.78;2.60;;;25.10;81.50;;;;;;4393669;28;656868;-72
2023/06/30 09:14:03;;;;;;;4.05;2.50;;;25.30;77.50;;;;;;4408135;28;657823;-76
2023/06/30 09:16:51;;;;;;;5.22;2.28;;;26.20;70.10;;;;;;4393795;28;656416;-77
2023/06/30 09:19:39;;;;;;;3.55;2.40;;;25.80;71.90;;;;;;4407496;28;656783;-77
2023/06/30 09:22:27;;;;;;;6.15;2.38;;;26.20;73.70;;;;;;4388628;28;656695;-73
2023/06/30 09:25:39;;;;;;;3.55;2.22;;;26.10;69.40;;;;;;4413408;28;656010;-79
2023/06/30 09:28:26;;;;;;;3.83;2.05;;;26.40;75.80;;;;;;4362436;28;656646;-74
2023/06/30 09:31:13;;;;;;;5.82;2.30;;;26.20;65.70;;;;;;4411906;28;657554;-73
2023/06/30 09:34:09;;;;;;;8.63;2.28;;;26.00;71.60;;;;;;4392119;28;656907;-73
2023/06/30 09:36:57;;;;;;;2.95;2.10;;;26.20;66.90;;;;;;4384982;28;656435;-73
2023/06/30 09:39:50;;;;;;;4.00;2.40;;;25.80;63.10;;;;;;4401100;28;656749;-74
2023/06/30 09:42:37;;;;;;;7.43;2.00;;;25.70;66.20;;;;;;4388865;28;657086;-76
2023/06/30 09:45:24;;;;;;;4.32;2.28;;;25.80;66.00;;;;;;4408575;28;657312;-75
2023/06/30 09:48:11;;;;;;;5.72;2.60;;;26.00;65.70;;;;;;4387277;28;656775;-72
2023/06/30 09:50:59;;;;;;;6.38;2.47;;;26.00;66.30;;;;;;4405391;28;656441;-76
2023/06/30 09:53:47;;;;;;;2.97;1.95;;;26.10;66.80;;;;;;4388702;28;657646;-76
2023/06/30 09:56:35;;;;;;;3.15;2.10;;;26.20;64.70;;;;;;4405863;28;659277;-76
2023/06/30 09:59:23;;;;;;;4.05;2.00;;;26.10;67.40;;;;;;4388518;28;657124;-73
2023/06/30 10:02:11;;;;;;;5.93;2.40;;;26.00;64.00;;;;;;4391330;28;656959;-75
2023/06/30 10:04:58;;;;;;;5.57;2.20;;;25.40;65.10;;;;;;4406464;28;657110;-77
2023/06/30 10:07:45;;;;;;;3.28;2.40;;;25.30;66.70;;;;;;4393782;28;656656;-73
2023/06/30 10:10:34;;;;;;;4.20;2.17;;;25.10;64.90;;;;;;4411042;28;657058;-77
2023/06/30 10:13:21;;;;;;;3.50;2.60;;;25.90;71.40;;;;;;4392673;28;656487;-76
2023/06/30 10:16:08;;;;;;;3.17;2.20;;;26.70;64.10;;;;;;4403916;28;658277;-77
2023/06/30 10:18:55;;;;;;;5.75;2.47;;;27.50;68.30;;;;;;4392190;28;657131;-75
2023/06/30 10:21:43;;;;;;;7.15;2.70;;;28.10;62.20;;;;;;4401870;28;658014;-77
2023/06/30 10:24:32;;;;;;;3.05;2.33;;;28.20;58.90;;;;;;4401442;28;656908;-74
2023/06/30 10:27:21;;;;;;;5.80;2.42;;;26.80;58.40;;;;;;4403229;28;656884;-76
2023/06/30 10:30:09;;;;;;;4.90;2.28;;;26.60;62.20;;;;;;4380444;28;657251;-76
2023/06/30 10:32:56;;;;;;;4.68;2.30;;;26.80;62.90;;;;;;4388434;28;657254;-77
2023/06/30 10:35:43;;;;;;;3.67;2.17;;;27.20;65.50;;;;;;4412273;28;657079;-76
2023/06/30 10:38:31;;;;;;;5.68;2.25;;;27.40;62.90;;;;;;4378470;28;656600;-74
2023/06/30 10:41:19;;;;;;;3.13;2.35;;;27.10;61.20;;;;;;4406562;28;657197;-76
2023/06/30 10:44:09;;;;;;;10.13;2.70;;;27.50;59.70;;;;;;4377518;28;656391;-77
2023/06/30 10:46:57;;;;;;;5.18;2.28;;;27.30;60.30;;;;;;4396410;28;657542;-77
2023/06/30 10:49:44;;;;;;;4.30;2.30;;;27.30;59.40;;;;;;4401679;28;656756;-77
2023/06/30 10:52:31;;;;;;;3.72;2.42;;;27.50;59.40;;;;;;4386710;28;656680;-74
2023/06/30 10:55:22;;;;;;;5.70;2.50;;;27.20;57.10;;;;;;4405303;28;656786;-75
2023/06/30 10:58:10;;;;;;;6.40;2.47;;;26.90;57.90;;;;;;4382990;28;656549;-74
2023/06/30 11:01:04;;;;;;;5.85;2.60;;;27.10;59.10;;;;;;4386907;28;656514;-75
2023/06/30 11:04:11;;;;;;;3.70;2.55;;;27.50;57.90;;;;;;4389193;28;656178;-74
2023/06/30 11:07:03;;;;;;;4.00;2.40;;;26.50;57.20;;;;;;4384676;28;657156;-74
2023/06/30 11:09:57;;;;;;;3.75;2.25;;;26.20;60.40;;;;;;4361220;28;656418;-72
2023/06/30 11:12:51;;;;;;;3.33;2.30;;;26.70;59.10;;;;;;4382452;28;656650;-76
2023/06/30 11:15:46;;;;;;;3.30;2.50;;;27.20;57.90;;;;;;4383976;28;656507;-73
2023/06/30 11:18:35;;;;;;;4.50;2.58;;;27.60;62.90;;;;;;4383730;28;656491;-74
2023/06/30 11:21:22;;;;;;;3.42;2.47;;;27.50;60.20;;;;;;4380024;28;657364;-76
2023/06/30 11:24:15;;;;;;;5.75;2.28;;;27.40;56.10;;;;;;4401393;28;656534;-72
2023/06/30 11:27:04;;;;;;;3.10;2.25;;;27.70;60.70;;;;;;4361671;28;657104;-75
2023/06/30 11:29:51;;;;;;;3.65;2.10;;;27.20;55.90;;;;;;4386695;28;656634;-76
2023/06/30 11:32:38;;;;;;;2.55;2.10;;;27.60;57.40;;;;;;4404095;28;656719;-76
2023/06/30 11:35:28;;;;;;;4.75;2.17;;;27.60;54.60;;;;;;4380564;28;656734;-72
2023/06/30 11:38:16;;;;;;;3.70;2.30;;;27.60;60.90;;;;;;4381720;28;656944;-74
2023/06/30 11:41:03;;;;;;;6.03;2.08;;;27.20;55.60;;;;;;4410811;28;657723;-75
2023/06/30 11:43:50;;;;;;;3.97;2.25;;;27.10;57.70;;;;;;4391090;28;656972;-74
2023/06/30 11:46:38;;;;;;;3.72;2.15;;;26.90;62.40;;;;;;4407086;28;657339;-78
2023/06/30 11:49:26;;;;;;;4.13;2.50;;;27.60;60.50;;;;;;4400009;28;656761;-73
2023/06/30 11:52:15;;;;;;;3.55;2.30;;;27.80;56.10;;;;;;4411720;28;656936;-75
2023/06/30 11:55:05;;;;;;;4.82;2.47;;;27.70;59.60;;;;;;4374594;28;658043;-74
2023/06/30 11:57:53;;;;;;;3.80;2.40;;;27.10;60.40;;;;;;4379214;28;657658;-75
2023/06/30 12:00:43;;;;;;;3.38;2.40;;;26.80;60.20;;;;;;4389712;28;657085;-75
2023/06/30 12:03:30;;;;;;;3.22;2.40;;;26.60;58.40;;;;;;4387231;28;656429;-73
2023/06/30 12:06:18;;;;;;;4.82;2.40;;;26.00;57.70;;;;;;4404468;28;657491;-73
2023/06/30 12:09:07;;;;;;;4.68;2.50;;;26.60;59.80;;;;;;4391079;28;656496;-73
2023/06/30 12:11:55;;;;;;;6.10;2.42;;;27.40;58.80;;;;;;4399580;28;656283;-74
2023/06/30 12:14:43;;;;;;;7.03;2.50;;;28.40;63.20;;;;;;4383309;28;656440;-72
2023/06/30 12:17:30;;;;;;;2.58;2.35;;;28.40;59.30;;;;;;4392662;28;657328;-73
2023/06/30 12:20:21;;;;;;;4.28;2.40;;;28.10;57.40;;;;;;4410509;28;656836;-74
2023/06/30 12:23:08;;;;;;;4.25;2.47;;;27.50;57.40;;;;;;4388783;28;657076;-73
2023/06/30 12:25:57;;;;;;;6.03;2.60;;;27.40;58.80;;;;;;4386270;28;657662;-73
2023/06/30 12:28:44;;;;;;;4.50;2.50;;;27.60;57.00;;;;;;4408823;28;656219;-74
2023/06/30 12:31:32;;;;;;;3.55;2.47;;;27.90;57.60;;;;;;4379990;28;657107;-75
2023/06/30 12:34:31;;;;;;;5.10;2.58;;;28.60;60.20;;;;;;4408689;28;656380;-74
2023/06/30 12:37:19;;;;;;;8.02;2.58;;;28.10;58.20;;;;;;4383264;28;656958;-76
2023/06/30 12:40:08;;;;;;;6.75;2.97;;;28.10;57.00;;;;;;4380116;28;656914;-74
2023/06/30 12:42:57;;;;;;;10.73;2.65;;;27.20;57.30;;;;;;4389022;28;657325;-73
2023/06/30 12:45:45;;;;;;;4.32;2.90;;;26.90;57.50;;;;;;4406090;28;657508;-74
2023/06/30 12:48:32;;;;;;;4.65;2.83;;;27.00;59.80;;;;;;4386024;28;657405;-73
2023/06/30 12:51:20;;;;;;;5.82;2.63;;;26.40;62.90;;;;;;4409193;28;656831;-74
2023/06/30 12:54:07;;;;;;;4.68;2.72;;;26.80;59.30;;;;;;4391922;28;656869;-73
2023/06/30 12:56:54;;;;;;;4.80;3.13;;;26.70;59.80;;;;;;4406194;28;656673;-74
2023/06/30 12:59:43;;;;;;;4.82;2.95;;;26.90;59.20;;;;;;4385523;28;656456;-73
2023/06/30 13:02:30;;;;;;;5.13;3.05;;;26.90;57.50;;;;;;4390512;28;657377;-73
2023/06/30 13:05:18;;;;;;;5.82;2.63;;;27.70;60.50;;;;;;4408902;28;657560;-73
2023/06/30 13:08:05;;;;;;;7.90;2.84;;;28.00;58.50;;;;;;4389467;28;656839;-73
2023/06/30 13:10:52;;;;;;;6.30;2.80;;;27.90;58.70;;;;;;4407653;28;657358;-73
2023/06/30 13:13:40;;;;;;;6.18;2.70;;;27.30;59.60;;;;;;4405548;28;656460;-74
2023/06/30 13:16:29;;;;;;;4.70;2.47;;;27.40;59.40;;;;;;4414983;28;657944;-73
2023/06/30 13:19:16;;;;;;;7.20;2.80;;;27.60;55.70;;;;;;4389235;28;656112;-74
2023/06/30 13:22:03;;;;;;;6.75;2.97;;;27.60;58.10;;;;;;4410485;28;657638;-74
2023/06/30 13:24:51;;;;;;;5.50;2.83;;;27.50;55.40;;;;;;4390572;28;656461;-73
2023/06/30 13:27:38;;;;;;;7.75;2.83;;;27.30;57.20;;;;;;4410216;28;657502;-73
2023/06/30 13:30:25;;;;;;;7.10;2.90;;;27.70;59.60;;;;;;4397544;28;656478;-74
2023/06/30 13:33:14;;;;;;;7.70;2.58;;;28.30;61.80;;;;;;4414054;28;656101;-74
2023/06/30 13:36:01;;;;;;;5.95;2.70;;;29.10;61.10;;;;;;4390268;28;657037;-74
2023/06/30 13:38:48;;;;;;;5.22;2.30;;;29.70;56.80;;;;;;4409933;28;657122;-74
2023/06/30 13:41:36;;;;;;;3.92;2.50;;;29.40;52.90;;;;;;4390251;28;656373;-73
2023/06/30 13:44:23;;;;;;;4.05;2.55;;;28.70;51.50;;;;;;4409396;28;657269;-74
2023/06/30 13:47:11;;;;;;;5.70;2.60;;;28.40;53.90;;;;;;4391085;28;657254;-73
2023/06/30 13:50:00;;;;;;;4.20;2.60;;;28.20;55.00;;;;;;4412831;28;657482;-73
2023/06/30 13:52:47;;;;;;;6.72;2.70;;;28.20;54.00;;;;;;4387253;28;657489;-74
2023/06/30 13:55:34;;;;;;;4.47;2.28;;;28.50;53.50;;;;;;4409779;28;656950;-75
2023/06/30 13:58:22;;;;;;;5.18;2.60;;;28.70;53.00;;;;;;4391954;28;657798;-74
2023/06/30 14:01:09;;;;;;;3.75;2.47;;;29.20;53.30;;;;;;4414651;28;656420;-74
2023/06/30 14:03:56;;;;;;;2.95;2.40;;;29.10;49.90;;;;;;4393432;28;657005;-73
2023/06/30 14:06:45;;;;;;;7.97;2.70;;;29.30;56.20;;;;;;4410965;28;656109;-73
2023/06/30 14:09:32;;;;;;;3.13;2.20;;;29.90;56.80;;;;;;4388567;28;657039;-73
2023/06/30 14:12:19;;;;;;;4.07;2.40;;;30.00;50.40;;;;;;4409274;28;656545;-74
2023/06/30 14:15:07;;;;;;;3.15;2.22;;;30.40;48.90;;;;;;4389354;28;656857;-74
2023/06/30 14:17:54;;;;;;;3.33;2.50;;;30.30;46.90;;;;;;4405228;28;656755;-74